sensor_id;sensor_type;location;lat;lon;timestamp;temperature;humidity
15483;DHT22;7843;50.330;7.312;2023-07-13T00:01:48;17.80;79.90
15483;DHT22;7843;50.330;7.312;2023-07-13T00:04:21;17.70;80.80
15483;DHT22;7843;50.330;7.312;2023-07-13T00:06:49;17.60;81.30
15483;DHT22;7843;50.330;7.312;2023-07-13T00:09:18;17.50;81.20
15483;DHT22;7843;50.330;7.312;2023-07-13T00:11:45;17.40;81.70
15483;DHT22;7843;50.330;7.312;2023-07-13T00:14:17;17.30;81.00
15483;DHT22;7843;50.330;7.312;2023-07-13T00:16:44;17.20;81.70
15483;DHT22;7843;50.330;7.312;2023-07-13T00:19:13;17.10;82.40
15483;DHT22;7843;50.330;7.312;2023-07-13T00:24:08;16.90;83.00
15483;DHT22;7843;50.330;7.312;2023-07-13T00:26:40;16.80;83.10
15483;DHT22;7843;50.330;7.312;2023-07-13T00:29:06;16.70;83.40
15483;DHT22;7843;50.330;7.312;2023-07-13T00:31:35;16.60;83.30
15483;DHT22;7843;50.330;7.312;2023-07-13T00:34:03;16.50;83.40
15483;DHT22;7843;50.330;7.312;2023-07-13T00:36:30;16.40;83.90
15483;DHT22;7843;50.330;7.312;2023-07-13T00:38:57;16.40;83.90
15483;DHT22;7843;50.330;7.312;2023-07-13T00:41:24;16.40;84.80
15483;DHT22;7843;50.330;7.312;2023-07-13T00:43:51;16.40;85.10
15483;DHT22;7843;50.330;7.312;2023-07-13T00:46:27;16.30;85.50
15483;DHT22;7843;50.330;7.312;2023-07-13T00:48:58;16.20;85.40
15483;DHT22;7843;50.330;7.312;2023-07-13T00:51:40;16.10;86.00
15483;DHT22;7843;50.330;7.312;2023-07-13T00:54:11;16.00;85.90
15483;DHT22;7843;50.330;7.312;2023-07-13T00:56:40;16.00;86.20
15483;DHT22;7843;50.330;7.312;2023-07-13T00:59:08;15.90;86.40
15483;DHT22;7843;50.330;7.312;2023-07-13T01:04:06;15.70;87.50
15483;DHT22;7843;50.330;7.312;2023-07-13T01:06:36;15.70;87.50
15483;DHT22;7843;50.330;7.312;2023-07-13T01:09:04;15.60;88.00
15483;DHT22;7843;50.330;7.312;2023-07-13T01:11:32;15.60;88.40
15483;DHT22;7843;50.330;7.312;2023-07-13T01:14:00;15.50;87.90
15483;DHT22;7843;50.330;7.312;2023-07-13T01:16:31;15.60;88.00
15483;DHT22;7843;50.330;7.312;2023-07-13T01:18:58;15.50;88.50
15483;DHT22;7843;50.330;7.312;2023-07-13T01:21:28;15.50;88.70
15483;DHT22;7843;50.330;7.312;2023-07-13T01:23:55;15.40;88.40
15483;DHT22;7843;50.330;7.312;2023-07-13T01:26:22;15.40;89.10
15483;DHT22;7843;50.330;7.312;2023-07-13T01:31:16;15.30;89.10
15483;DHT22;7843;50.330;7.312;2023-07-13T01:33:43;15.20;88.70
15483;DHT22;7843;50.330;7.312;2023-07-13T01:36:11;15.20;89.00
15483;DHT22;7843;50.330;7.312;2023-07-13T01:38:39;15.20;88.70
15483;DHT22;7843;50.330;7.312;2023-07-13T01:41:05;15.10;88.40
15483;DHT22;7843;50.330;7.312;2023-07-13T01:43:32;15.00;88.50
15483;DHT22;7843;50.330;7.312;2023-07-13T01:45:59;14.90;88.70
15483;DHT22;7843;50.330;7.312;2023-07-13T01:48:32;14.90;89.40
15483;DHT22;7843;50.330;7.312;2023-07-13T01:50:58;14.80;89.50
15483;DHT22;7843;50.330;7.312;2023-07-13T01:53:25;14.80;89.70
15483;DHT22;7843;50.330;7.312;2023-07-13T01:55:52;14.80;89.70
15483;DHT22;7843;50.330;7.312;2023-07-13T01:58:18;14.80;89.90
15483;DHT22;7843;50.330;7.312;2023-07-13T02:00:48;14.70;90.10
15483;DHT22;7843;50.330;7.312;2023-07-13T02:03:15;14.70;90.00
15483;DHT22;7843;50.330;7.312;2023-07-13T02:05:44;14.60;90.00
15483;DHT22;7843;50.330;7.312;2023-07-13T02:08:11;14.60;90.30
15483;DHT22;7843;50.330;7.312;2023-07-13T02:10:38;14.60;90.80
15483;DHT22;7843;50.330;7.312;2023-07-13T02:13:06;14.60;90.60
15483;DHT22;7843;50.330;7.312;2023-07-13T02:15:33;14.50;90.90
15483;DHT22;7843;50.330;7.312;2023-07-13T02:17:59;14.60;91.20
15483;DHT22;7843;50.330;7.312;2023-07-13T02:20:26;14.60;90.60
15483;DHT22;7843;50.330;7.312;2023-07-13T02:22:53;14.50;90.80
15483;DHT22;7843;50.330;7.312;2023-07-13T02:25:20;14.40;90.60
15483;DHT22;7843;50.330;7.312;2023-07-13T02:27:46;14.40;90.70
15483;DHT22;7843;50.330;7.312;2023-07-13T02:30:13;14.40;91.10
15483;DHT22;7843;50.330;7.312;2023-07-13T02:32:40;14.40;91.20
15483;DHT22;7843;50.330;7.312;2023-07-13T02:35:07;14.40;91.20
15483;DHT22;7843;50.330;7.312;2023-07-13T02:37:34;14.40;91.10
15483;DHT22;7843;50.330;7.312;2023-07-13T02:40:01;14.30;91.50
15483;DHT22;7843;50.330;7.312;2023-07-13T02:42:31;14.30;91.50
15483;DHT22;7843;50.330;7.312;2023-07-13T02:44:58;14.20;91.90
15483;DHT22;7843;50.330;7.312;2023-07-13T02:47:25;14.20;92.20
15483;DHT22;7843;50.330;7.312;2023-07-13T02:49:51;14.20;92.10
15483;DHT22;7843;50.330;7.312;2023-07-13T02:52:18;14.20;91.90
15483;DHT22;7843;50.330;7.312;2023-07-13T02:54:45;14.20;92.00
15483;DHT22;7843;50.330;7.312;2023-07-13T02:57:12;14.20;91.80
15483;DHT22;7843;50.330;7.312;2023-07-13T02:59:38;14.10;91.70
15483;DHT22;7843;50.330;7.312;2023-07-13T03:02:05;14.10;92.00
15483;DHT22;7843;50.330;7.312;2023-07-13T03:04:32;14.00;92.10
15483;DHT22;7843;50.330;7.312;2023-07-13T03:06:58;14.00;91.70
15483;DHT22;7843;50.330;7.312;2023-07-13T03:09:25;13.90;92.00
15483;DHT22;7843;50.330;7.312;2023-07-13T03:11:53;13.90;92.00
15483;DHT22;7843;50.330;7.312;2023-07-13T03:14:22;13.90;92.10
15483;DHT22;7843;50.330;7.312;2023-07-13T03:16:49;13.80;92.40
15483;DHT22;7843;50.330;7.312;2023-07-13T03:19:16;13.90;92.60
15483;DHT22;7843;50.330;7.312;2023-07-13T03:21:42;13.90;92.50
15483;DHT22;7843;50.330;7.312;2023-07-13T03:24:09;13.90;92.30
15483;DHT22;7843;50.330;7.312;2023-07-13T03:26:37;13.90;92.80
15483;DHT22;7843;50.330;7.312;2023-07-13T03:29:03;13.90;92.80
15483;DHT22;7843;50.330;7.312;2023-07-13T03:31:35;13.80;92.90
15483;DHT22;7843;50.330;7.312;2023-07-13T03:34:02;13.80;92.90
15483;DHT22;7843;50.330;7.312;2023-07-13T03:36:31;13.80;93.20
15483;DHT22;7843;50.330;7.312;2023-07-13T03:39:00;13.80;93.30
15483;DHT22;7843;50.330;7.312;2023-07-13T03:41:27;13.90;93.30
15483;DHT22;7843;50.330;7.312;2023-07-13T03:43:54;13.90;93.20
15483;DHT22;7843;50.330;7.312;2023-07-13T03:46:21;13.90;93.20
15483;DHT22;7843;50.330;7.312;2023-07-13T03:48:48;13.90;92.80
15483;DHT22;7843;50.330;7.312;2023-07-13T03:51:16;13.90;92.70
15483;DHT22;7843;50.330;7.312;2023-07-13T03:53:44;13.90;93.00
15483;DHT22;7843;50.330;7.312;2023-07-13T03:56:12;13.80;93.50
15483;DHT22;7843;50.330;7.312;2023-07-13T03:58:43;13.90;93.90
15483;DHT22;7843;50.330;7.312;2023-07-13T04:01:11;13.90;93.80
15483;DHT22;7843;50.330;7.312;2023-07-13T04:03:38;13.90;93.30
15483;DHT22;7843;50.330;7.312;2023-07-13T04:06:06;13.80;93.60
15483;DHT22;7843;50.330;7.312;2023-07-13T04:08:35;13.90;93.90
15483;DHT22;7843;50.330;7.312;2023-07-13T04:11:04;13.90;94.00
15483;DHT22;7843;50.330;7.312;2023-07-13T04:13:30;13.90;94.40
15483;DHT22;7843;50.330;7.312;2023-07-13T04:15:57;13.90;94.20
15483;DHT22;7843;50.330;7.312;2023-07-13T04:18:24;13.90;94.20
15483;DHT22;7843;50.330;7.312;2023-07-13T04:20:51;14.00;93.60
15483;DHT22;7843;50.330;7.312;2023-07-13T04:23:18;14.00;93.40
15483;DHT22;7843;50.330;7.312;2023-07-13T04:25:46;14.10;93.50
15483;DHT22;7843;50.330;7.312;2023-07-13T04:28:16;14.20;93.80
15483;DHT22;7843;50.330;7.312;2023-07-13T04:30:44;14.20;92.90
15483;DHT22;7843;50.330;7.312;2023-07-13T04:33:11;14.30;92.80
15483;DHT22;7843;50.330;7.312;2023-07-13T04:35:37;14.40;92.70
15483;DHT22;7843;50.330;7.312;2023-07-13T04:38:04;14.40;92.60
15483;DHT22;7843;50.330;7.312;2023-07-13T04:40:31;14.40;92.90
15483;DHT22;7843;50.330;7.312;2023-07-13T04:42:58;14.40;92.90
15483;DHT22;7843;50.330;7.312;2023-07-13T04:45:24;14.40;93.10
15483;DHT22;7843;50.330;7.312;2023-07-13T04:47:51;14.40;93.70
15483;DHT22;7843;50.330;7.312;2023-07-13T04:50:18;14.50;94.20
15483;DHT22;7843;50.330;7.312;2023-07-13T04:52:50;14.50;94.00
15483;DHT22;7843;50.330;7.312;2023-07-13T04:55:18;14.60;93.50
15483;DHT22;7843;50.330;7.312;2023-07-13T04:57:45;14.60;94.20
15483;DHT22;7843;50.330;7.312;2023-07-13T05:00:13;14.70;94.60
15483;DHT22;7843;50.330;7.312;2023-07-13T05:02:44;14.70;95.00
15483;DHT22;7843;50.330;7.312;2023-07-13T05:05:12;14.80;93.40
15483;DHT22;7843;50.330;7.312;2023-07-13T05:07:39;14.90;93.40
15483;DHT22;7843;50.330;7.312;2023-07-13T05:10:06;15.00;93.50
15483;DHT22;7843;50.330;7.312;2023-07-13T05:12:33;15.10;93.00
15483;DHT22;7843;50.330;7.312;2023-07-13T05:15:00;15.20;93.60
15483;DHT22;7843;50.330;7.312;2023-07-13T05:17:27;15.30;93.40
15483;DHT22;7843;50.330;7.312;2023-07-13T05:19:53;15.30;93.00
15483;DHT22;7843;50.330;7.312;2023-07-13T05:22:20;15.40;91.60
15483;DHT22;7843;50.330;7.312;2023-07-13T05:24:47;15.40;92.30
15483;DHT22;7843;50.330;7.312;2023-07-13T05:27:14;15.40;92.70
15483;DHT22;7843;50.330;7.312;2023-07-13T05:29:40;15.50;92.20
15483;DHT22;7843;50.330;7.312;2023-07-13T05:32:07;15.50;91.90
15483;DHT22;7843;50.330;7.312;2023-07-13T05:34:34;15.50;91.50
15483;DHT22;7843;50.330;7.312;2023-07-13T05:37:01;15.50;92.10
15483;DHT22;7843;50.330;7.312;2023-07-13T05:39:27;15.50;91.40
15483;DHT22;7843;50.330;7.312;2023-07-13T05:41:54;15.50;92.10
15483;DHT22;7843;50.330;7.312;2023-07-13T05:44:21;15.50;91.90
15483;DHT22;7843;50.330;7.312;2023-07-13T05:46:48;15.40;92.90
15483;DHT22;7843;50.330;7.312;2023-07-13T05:49:14;15.50;92.10
15483;DHT22;7843;50.330;7.312;2023-07-13T05:51:42;15.60;91.60
15483;DHT22;7843;50.330;7.312;2023-07-13T05:54:09;15.60;91.50
15483;DHT22;7843;50.330;7.312;2023-07-13T05:56:36;15.70;92.40
15483;DHT22;7843;50.330;7.312;2023-07-13T05:59:02;15.80;91.80
15483;DHT22;7843;50.330;7.312;2023-07-13T06:01:29;16.00;92.10
15483;DHT22;7843;50.330;7.312;2023-07-13T06:03:56;16.10;91.90
15483;DHT22;7843;50.330;7.312;2023-07-13T06:06:23;16.20;91.60
15483;DHT22;7843;50.330;7.312;2023-07-13T06:08:50;16.40;91.40
15483;DHT22;7843;50.330;7.312;2023-07-13T06:11:23;16.50;90.10
15483;DHT22;7843;50.330;7.312;2023-07-13T06:13:50;16.80;89.20
15483;DHT22;7843;50.330;7.312;2023-07-13T06:16:17;16.90;88.80
15483;DHT22;7843;50.330;7.312;2023-07-13T06:18:44;17.00;90.00
15483;DHT22;7843;50.330;7.312;2023-07-13T06:21:14;17.10;89.10
15483;DHT22;7843;50.330;7.312;2023-07-13T06:23:41;17.20;89.20
15483;DHT22;7843;50.330;7.312;2023-07-13T06:26:09;17.30;88.70
15483;DHT22;7843;50.330;7.312;2023-07-13T06:28:36;17.30;89.70
15483;DHT22;7843;50.330;7.312;2023-07-13T06:31:06;17.40;89.40
15483;DHT22;7843;50.330;7.312;2023-07-13T06:33:34;17.50;88.10
15483;DHT22;7843;50.330;7.312;2023-07-13T06:36:02;17.60;88.80
15483;DHT22;7843;50.330;7.312;2023-07-13T06:38:29;17.80;89.40
15483;DHT22;7843;50.330;7.312;2023-07-13T06:40:56;17.90;88.90
15483;DHT22;7843;50.330;7.312;2023-07-13T06:43:23;18.20;85.70
15483;DHT22;7843;50.330;7.312;2023-07-13T06:45:54;18.40;83.40
15483;DHT22;7843;50.330;7.312;2023-07-13T06:48:21;18.50;83.10
15483;DHT22;7843;50.330;7.312;2023-07-13T06:50:49;18.70;83.50
15483;DHT22;7843;50.330;7.312;2023-07-13T06:53:17;18.90;82.40
15483;DHT22;7843;50.330;7.312;2023-07-13T06:55:44;18.90;81.10
15483;DHT22;7843;50.330;7.312;2023-07-13T06:58:12;18.90;82.00
15483;DHT22;7843;50.330;7.312;2023-07-13T07:00:39;18.90;80.00
15483;DHT22;7843;50.330;7.312;2023-07-13T07:03:07;19.00;79.60
15483;DHT22;7843;50.330;7.312;2023-07-13T07:05:33;19.10;79.90
15483;DHT22;7843;50.330;7.312;2023-07-13T07:08:00;19.20;79.90
15483;DHT22;7843;50.330;7.312;2023-07-13T07:10:29;19.40;80.90
15483;DHT22;7843;50.330;7.312;2023-07-13T07:12:56;19.50;81.70
15483;DHT22;7843;50.330;7.312;2023-07-13T07:15:23;19.70;79.00
15483;DHT22;7843;50.330;7.312;2023-07-13T07:17:50;19.80;78.60
15483;DHT22;7843;50.330;7.312;2023-07-13T07:20:16;19.90;78.90
15483;DHT22;7843;50.330;7.312;2023-07-13T07:22:43;19.90;77.10
15483;DHT22;7843;50.330;7.312;2023-07-13T07:27:37;20.00;76.80
15483;DHT22;7843;50.330;7.312;2023-07-13T07:30:07;20.10;76.60
15483;DHT22;7843;50.330;7.312;2023-07-13T07:32:37;20.30;76.10
15483;DHT22;7843;50.330;7.312;2023-07-13T07:35:07;20.40;77.90
15483;DHT22;7843;50.330;7.312;2023-07-13T07:37:33;20.60;75.50
15483;DHT22;7843;50.330;7.312;2023-07-13T07:40:03;20.70;76.40
15483;DHT22;7843;50.330;7.312;2023-07-13T07:42:33;20.80;75.80
15483;DHT22;7843;50.330;7.312;2023-07-13T07:45:00;20.90;72.70
15483;DHT22;7843;50.330;7.312;2023-07-13T07:47:27;21.00;74.00
15483;DHT22;7843;50.330;7.312;2023-07-13T07:49:54;20.90;71.40
15483;DHT22;7843;50.330;7.312;2023-07-13T07:52:21;21.00;72.40
15483;DHT22;7843;50.330;7.312;2023-07-13T07:54:47;21.10;71.00
15483;DHT22;7843;50.330;7.312;2023-07-13T07:57:17;21.10;70.90
15483;DHT22;7843;50.330;7.312;2023-07-13T08:00:04;21.10;71.00
15483;DHT22;7843;50.330;7.312;2023-07-13T08:02:34;21.30;71.30
15483;DHT22;7843;50.330;7.312;2023-07-13T08:05:04;21.30;72.00
15483;DHT22;7843;50.330;7.312;2023-07-13T08:07:34;21.50;70.70
15483;DHT22;7843;50.330;7.312;2023-07-13T08:10:01;21.70;70.80
15483;DHT22;7843;50.330;7.312;2023-07-13T08:12:27;21.90;70.40
15483;DHT22;7843;50.330;7.312;2023-07-13T08:14:57;22.10;70.10
15483;DHT22;7843;50.330;7.312;2023-07-13T08:17:25;22.10;71.30
15483;DHT22;7843;50.330;7.312;2023-07-13T08:19:51;22.30;70.30
15483;DHT22;7843;50.330;7.312;2023-07-13T08:22:18;22.40;69.40
15483;DHT22;7843;50.330;7.312;2023-07-13T08:24:45;22.50;69.40
15483;DHT22;7843;50.330;7.312;2023-07-13T08:27:13;22.60;69.20
15483;DHT22;7843;50.330;7.312;2023-07-13T08:29:40;22.70;69.90
15483;DHT22;7843;50.330;7.312;2023-07-13T08:32:07;22.80;69.00
15483;DHT22;7843;50.330;7.312;2023-07-13T08:34:35;22.90;69.60
15483;DHT22;7843;50.330;7.312;2023-07-13T08:37:02;22.70;66.60
15483;DHT22;7843;50.330;7.312;2023-07-13T08:39:33;22.50;67.30
15483;DHT22;7843;50.330;7.312;2023-07-13T08:42:11;22.40;67.90
15483;DHT22;7843;50.330;7.312;2023-07-13T08:47:15;22.60;67.10
15483;DHT22;7843;50.330;7.312;2023-07-13T08:49:44;22.60;69.40
15483;DHT22;7843;50.330;7.312;2023-07-13T08:52:36;22.80;71.00
15483;DHT22;7843;50.330;7.312;2023-07-13T08:55:09;22.90;70.60
15483;DHT22;7843;50.330;7.312;2023-07-13T08:57:39;22.90;67.10
15483;DHT22;7843;50.330;7.312;2023-07-13T09:00:11;22.90;68.30
15483;DHT22;7843;50.330;7.312;2023-07-13T09:02:56;22.90;66.40
15483;DHT22;7843;50.330;7.312;2023-07-13T09:05:28;23.00;66.70
15483;DHT22;7843;50.330;7.312;2023-07-13T09:10:43;23.10;65.10
15483;DHT22;7843;50.330;7.312;2023-07-13T09:13:28;23.20;66.60
15483;DHT22;7843;50.330;7.312;2023-07-13T09:15:59;23.20;65.90
15483;DHT22;7843;50.330;7.312;2023-07-13T09:18:38;23.30;66.00
15483;DHT22;7843;50.330;7.312;2023-07-13T09:21:22;23.30;65.60
15483;DHT22;7843;50.330;7.312;2023-07-13T09:23:53;23.60;67.50
15483;DHT22;7843;50.330;7.312;2023-07-13T09:26:23;23.60;65.50
15483;DHT22;7843;50.330;7.312;2023-07-13T09:28:57;23.70;65.80
15483;DHT22;7843;50.330;7.312;2023-07-13T09:31:42;23.80;64.60
15483;DHT22;7843;50.330;7.312;2023-07-13T09:34:13;23.80;65.70
15483;DHT22;7843;50.330;7.312;2023-07-13T09:36:40;23.90;63.20
15483;DHT22;7843;50.330;7.312;2023-07-13T09:39:14;24.00;64.30
15483;DHT22;7843;50.330;7.312;2023-07-13T09:41:50;24.20;65.40
15483;DHT22;7843;50.330;7.312;2023-07-13T09:44:31;24.20;64.50
15483;DHT22;7843;50.330;7.312;2023-07-13T09:46:59;24.50;64.30
15483;DHT22;7843;50.330;7.312;2023-07-13T09:49:29;24.50;61.40
15483;DHT22;7843;50.330;7.312;2023-07-13T09:51:59;24.40;63.10
15483;DHT22;7843;50.330;7.312;2023-07-13T09:54:27;24.60;62.40
15483;DHT22;7843;50.330;7.312;2023-07-13T09:56:58;24.70;61.20
15483;DHT22;7843;50.330;7.312;2023-07-13T09:59:33;24.80;62.70
15483;DHT22;7843;50.330;7.312;2023-07-13T10:02:00;24.70;60.20
15483;DHT22;7843;50.330;7.312;2023-07-13T10:04:32;24.60;61.60
15483;DHT22;7843;50.330;7.312;2023-07-13T10:07:07;24.50;61.20
15483;DHT22;7843;50.330;7.312;2023-07-13T10:09:43;24.50;59.30
15483;DHT22;7843;50.330;7.312;2023-07-13T10:12:16;24.40;60.70
15483;DHT22;7843;50.330;7.312;2023-07-13T10:14:44;24.30;60.50
15483;DHT22;7843;50.330;7.312;2023-07-13T10:17:13;24.20;61.20
15483;DHT22;7843;50.330;7.312;2023-07-13T10:19:42;24.10;62.10
15483;DHT22;7843;50.330;7.312;2023-07-13T10:22:45;24.00;60.20
15483;DHT22;7843;50.330;7.312;2023-07-13T10:25:17;24.10;59.90
15483;DHT22;7843;50.330;7.312;2023-07-13T10:27:45;24.20;61.50
15483;DHT22;7843;50.330;7.312;2023-07-13T10:30:20;24.30;61.10
15483;DHT22;7843;50.330;7.312;2023-07-13T10:32:49;24.50;58.80
15483;DHT22;7843;50.330;7.312;2023-07-13T10:35:17;24.60;59.10
15483;DHT22;7843;50.330;7.312;2023-07-13T10:37:52;24.50;60.50
15483;DHT22;7843;50.330;7.312;2023-07-13T10:40:25;24.20;58.10
15483;DHT22;7843;50.330;7.312;2023-07-13T10:42:57;23.90;59.80
15483;DHT22;7843;50.330;7.312;2023-07-13T10:45:25;23.80;61.50
15483;DHT22;7843;50.330;7.312;2023-07-13T10:47:54;23.70;61.70
15483;DHT22;7843;50.330;7.312;2023-07-13T10:50:28;23.60;61.50
15483;DHT22;7843;50.330;7.312;2023-07-13T10:53:21;23.40;61.90
15483;DHT22;7843;50.330;7.312;2023-07-13T11:01:12;23.60;63.70
15483;DHT22;7843;50.330;7.312;2023-07-13T11:04:00;23.50;62.20
15483;DHT22;7843;50.330;7.312;2023-07-13T11:06:39;23.60;62.70
15483;DHT22;7843;50.330;7.312;2023-07-13T11:09:30;23.50;63.00
15483;DHT22;7843;50.330;7.312;2023-07-13T11:12:06;23.40;62.00
15483;DHT22;7843;50.330;7.312;2023-07-13T11:15:01;23.40;65.20
15483;DHT22;7843;50.330;7.312;2023-07-13T11:22:49;23.30;61.90
15483;DHT22;7843;50.330;7.312;2023-07-13T11:27:51;23.50;62.30
15483;DHT22;7843;50.330;7.312;2023-07-13T11:30:23;23.60;62.20
15483;DHT22;7843;50.330;7.312;2023-07-13T11:35:35;23.80;61.60
15483;DHT22;7843;50.330;7.312;2023-07-13T11:38:03;23.80;62.00
15483;DHT22;7843;50.330;7.312;2023-07-13T11:40:35;23.70;63.20
15483;DHT22;7843;50.330;7.312;2023-07-13T11:43:06;23.50;61.90
15483;DHT22;7843;50.330;7.312;2023-07-13T11:45:33;23.50;62.60
15483;DHT22;7843;50.330;7.312;2023-07-13T11:48:25;23.30;61.30
15483;DHT22;7843;50.330;7.312;2023-07-13T11:50:58;23.20;62.00
15483;DHT22;7843;50.330;7.312;2023-07-13T11:53:28;23.30;61.40
15483;DHT22;7843;50.330;7.312;2023-07-13T11:55:57;23.30;62.30
15483;DHT22;7843;50.330;7.312;2023-07-13T11:58:24;23.50;60.60
15483;DHT22;7843;50.330;7.312;2023-07-13T12:00:56;23.60;62.50
15483;DHT22;7843;50.330;7.312;2023-07-13T12:03:25;23.80;64.60
15483;DHT22;7843;50.330;7.312;2023-07-13T12:06:04;23.90;60.70
15483;DHT22;7843;50.330;7.312;2023-07-13T12:08:39;24.10;60.50
15483;DHT22;7843;50.330;7.312;2023-07-13T12:11:16;24.60;60.40
15483;DHT22;7843;50.330;7.312;2023-07-13T12:13:44;25.20;58.70
15483;DHT22;7843;50.330;7.312;2023-07-13T12:16:24;25.30;58.10
15483;DHT22;7843;50.330;7.312;2023-07-13T12:18:53;25.10;60.70
15483;DHT22;7843;50.330;7.312;2023-07-13T12:21:24;24.70;58.20
15483;DHT22;7843;50.330;7.312;2023-07-13T12:23:52;24.40;59.70
15483;DHT22;7843;50.330;7.312;2023-07-13T12:26:19;24.10;59.60
15483;DHT22;7843;50.330;7.312;2023-07-13T12:28:52;23.80;59.00
15483;DHT22;7843;50.330;7.312;2023-07-13T12:36:37;23.50;60.10
15483;DHT22;7843;50.330;7.312;2023-07-13T12:39:13;23.60;61.50
15483;DHT22;7843;50.330;7.312;2023-07-13T12:41:41;23.70;61.30
15483;DHT22;7843;50.330;7.312;2023-07-13T12:44:25;23.50;61.60
15483;DHT22;7843;50.330;7.312;2023-07-13T12:46:58;23.50;61.60
15483;DHT22;7843;50.330;7.312;2023-07-13T12:49:28;23.40;61.40
15483;DHT22;7843;50.330;7.312;2023-07-13T12:51:58;23.20;60.40
15483;DHT22;7843;50.330;7.312;2023-07-13T12:54:26;23.00;59.80
15483;DHT22;7843;50.330;7.312;2023-07-13T12:56:54;22.80;60.50
15483;DHT22;7843;50.330;7.312;2023-07-13T12:59:28;22.70;61.80
15483;DHT22;7843;50.330;7.312;2023-07-13T13:01:58;22.90;63.30
15483;DHT22;7843;50.330;7.312;2023-07-13T13:04:26;23.00;62.20
15483;DHT22;7843;50.330;7.312;2023-07-13T13:07:11;23.10;64.40
15483;DHT22;7843;50.330;7.312;2023-07-13T13:09:37;23.30;65.80
15483;DHT22;7843;50.330;7.312;2023-07-13T13:12:04;23.40;64.50
15483;DHT22;7843;50.330;7.312;2023-07-13T13:14:33;23.40;62.20
15483;DHT22;7843;50.330;7.312;2023-07-13T13:17:04;23.50;63.00
15483;DHT22;7843;50.330;7.312;2023-07-13T13:19:37;23.40;62.60
15483;DHT22;7843;50.330;7.312;2023-07-13T13:22:04;23.50;63.50
15483;DHT22;7843;50.330;7.312;2023-07-13T13:24:31;23.60;64.10
15483;DHT22;7843;50.330;7.312;2023-07-13T13:26:57;23.70;61.50
15483;DHT22;7843;50.330;7.312;2023-07-13T13:29:25;23.70;62.50
15483;DHT22;7843;50.330;7.312;2023-07-13T13:31:53;23.80;63.80
15483;DHT22;7843;50.330;7.312;2023-07-13T13:34:22;23.70;61.10
15483;DHT22;7843;50.330;7.312;2023-07-13T13:36:53;23.90;61.20
15483;DHT22;7843;50.330;7.312;2023-07-13T13:39:23;23.80;60.10
15483;DHT22;7843;50.330;7.312;2023-07-13T13:41:52;23.90;59.90
15483;DHT22;7843;50.330;7.312;2023-07-13T13:44:20;23.90;58.70
15483;DHT22;7843;50.330;7.312;2023-07-13T13:46:49;24.00;60.70
15483;DHT22;7843;50.330;7.312;2023-07-13T13:49:19;24.10;59.30
15483;DHT22;7843;50.330;7.312;2023-07-13T13:51:47;24.10;60.10
15483;DHT22;7843;50.330;7.312;2023-07-13T13:54:16;23.90;59.60
15483;DHT22;7843;50.330;7.312;2023-07-13T13:56:45;23.90;60.80
15483;DHT22;7843;50.330;7.312;2023-07-13T13:59:12;23.90;62.00
15483;DHT22;7843;50.330;7.312;2023-07-13T14:01:44;24.00;62.10
15483;DHT22;7843;50.330;7.312;2023-07-13T14:04:19;24.00;60.90
15483;DHT22;7843;50.330;7.312;2023-07-13T14:06:46;24.20;61.10
15483;DHT22;7843;50.330;7.312;2023-07-13T14:09:15;24.20;60.40
15483;DHT22;7843;50.330;7.312;2023-07-13T14:11:43;24.30;61.50
15483;DHT22;7843;50.330;7.312;2023-07-13T14:14:19;24.20;61.50
15483;DHT22;7843;50.330;7.312;2023-07-13T14:16:47;24.30;61.40
15483;DHT22;7843;50.330;7.312;2023-07-13T14:19:23;24.70;61.40
15483;DHT22;7843;50.330;7.312;2023-07-13T14:21:50;25.20;59.10
15483;DHT22;7843;50.330;7.312;2023-07-13T14:24:19;25.50;58.60
15483;DHT22;7843;50.330;7.312;2023-07-13T14:26:46;25.60;58.80
15483;DHT22;7843;50.330;7.312;2023-07-13T14:29:17;25.50;60.20
15483;DHT22;7843;50.330;7.312;2023-07-13T14:31:45;25.30;58.10
15483;DHT22;7843;50.330;7.312;2023-07-13T14:34:13;25.10;59.10
15483;DHT22;7843;50.330;7.312;2023-07-13T14:36:44;25.20;59.70
15483;DHT22;7843;50.330;7.312;2023-07-13T14:39:15;25.30;61.10
15483;DHT22;7843;50.330;7.312;2023-07-13T14:41:43;25.70;61.20
15483;DHT22;7843;50.330;7.312;2023-07-13T14:44:15;26.30;59.50
15483;DHT22;7843;50.330;7.312;2023-07-13T14:46:43;26.90;57.00
15483;DHT22;7843;50.330;7.312;2023-07-13T14:49:37;27.40;57.10
15483;DHT22;7843;50.330;7.312;2023-07-13T14:52:16;27.10;59.20
15483;DHT22;7843;50.330;7.312;2023-07-13T14:54:44;27.00;56.90
15483;DHT22;7843;50.330;7.312;2023-07-13T14:57:17;26.70;58.60
15483;DHT22;7843;50.330;7.312;2023-07-13T14:59:46;26.50;59.60
15483;DHT22;7843;50.330;7.312;2023-07-13T15:02:25;26.60;57.40
15483;DHT22;7843;50.330;7.312;2023-07-13T15:04:53;26.80;58.70
15483;DHT22;7843;50.330;7.312;2023-07-13T15:07:21;27.20;56.90
15483;DHT22;7843;50.330;7.312;2023-07-13T15:09:48;27.20;55.20
15483;DHT22;7843;50.330;7.312;2023-07-13T15:12:14;26.90;54.80
15483;DHT22;7843;50.330;7.312;2023-07-13T15:14:41;26.80;54.90
15483;DHT22;7843;50.330;7.312;2023-07-13T15:17:33;26.80;55.90
15483;DHT22;7843;50.330;7.312;2023-07-13T15:20:12;26.70;56.70
15483;DHT22;7843;50.330;7.312;2023-07-13T15:22:42;26.20;57.20
15483;DHT22;7843;50.330;7.312;2023-07-13T15:25:33;25.50;57.70
15483;DHT22;7843;50.330;7.312;2023-07-13T15:28:00;25.40;61.00
15483;DHT22;7843;50.330;7.312;2023-07-13T15:30:30;25.20;59.00
15483;DHT22;7843;50.330;7.312;2023-07-13T15:33:01;25.20;60.30
15483;DHT22;7843;50.330;7.312;2023-07-13T15:35:33;25.60;59.00
15483;DHT22;7843;50.330;7.312;2023-07-13T15:38:00;25.90;58.30
15483;DHT22;7843;50.330;7.312;2023-07-13T15:40:28;25.70;58.80
15483;DHT22;7843;50.330;7.312;2023-07-13T15:42:55;25.60;58.60
15483;DHT22;7843;50.330;7.312;2023-07-13T15:45:23;25.30;58.90
15483;DHT22;7843;50.330;7.312;2023-07-13T15:47:51;25.10;59.80
15483;DHT22;7843;50.330;7.312;2023-07-13T15:50:23;25.00;60.50
15483;DHT22;7843;50.330;7.312;2023-07-13T15:52:53;24.90;60.40
15483;DHT22;7843;50.330;7.312;2023-07-13T15:55:21;24.80;60.70
15483;DHT22;7843;50.330;7.312;2023-07-13T15:57:51;24.70;61.80
15483;DHT22;7843;50.330;7.312;2023-07-13T16:00:21;24.70;62.40
15483;DHT22;7843;50.330;7.312;2023-07-13T16:02:49;24.60;61.90
15483;DHT22;7843;50.330;7.312;2023-07-13T16:05:17;24.50;62.40
15483;DHT22;7843;50.330;7.312;2023-07-13T16:07:49;24.50;62.70
15483;DHT22;7843;50.330;7.312;2023-07-13T16:10:21;24.40;63.30
15483;DHT22;7843;50.330;7.312;2023-07-13T16:12:48;24.20;61.90
15483;DHT22;7843;50.330;7.312;2023-07-13T16:15:18;24.20;61.90
15483;DHT22;7843;50.330;7.312;2023-07-13T16:17:46;24.40;61.90
15483;DHT22;7843;50.330;7.312;2023-07-13T16:20:14;24.40;62.10
15483;DHT22;7843;50.330;7.312;2023-07-13T16:22:50;24.40;61.90
15483;DHT22;7843;50.330;7.312;2023-07-13T16:25:20;24.30;65.00
15483;DHT22;7843;50.330;7.312;2023-07-13T16:27:48;24.30;64.80
15483;DHT22;7843;50.330;7.312;2023-07-13T16:30:18;24.10;62.20
15483;DHT22;7843;50.330;7.312;2023-07-13T16:32:51;23.90;63.10
15483;DHT22;7843;50.330;7.312;2023-07-13T16:35:23;23.80;62.00
15483;DHT22;7843;50.330;7.312;2023-07-13T16:37:50;23.80;62.00